createdAt,value
2023-04-19T04:07:48.182Z,99.90
2023-04-19T04:10:16.601Z,99.90
2023-04-19T04:12:44.895Z,99.90
2023-04-19T04:17:53.304Z,99.90
2023-04-19T04:20:22.345Z,99.90
2023-04-19T04:22:52.681Z,99.90
2023-04-19T04:25:23.221Z,99.90
2023-04-19T04:27:53.111Z,99.90
2023-04-19T04:30:22.205Z,99.90
2023-04-19T04:32:51.421Z,99.90
2023-04-19T04:35:20.816Z,99.90
2023-04-19T04:37:49.323Z,99.90
2023-04-19T04:40:19.421Z,99.90
2023-04-19T04:42:48.242Z,99.90
2023-04-19T04:45:18.555Z,99.90
2023-04-19T04:47:48.381Z,99.90
2023-04-19T04:50:16.689Z,99.90
2023-04-19T04:52:45.352Z,99.90
2023-04-19T04:55:13.799Z,99.90
2023-04-19T04:57:43.604Z,99.90
2023-04-19T05:00:15.931Z,99.90
2023-04-19T05:02:44.427Z,99.90
2023-04-19T05:05:13.563Z,99.90
2023-04-19T05:07:42.040Z,99.90
2023-04-19T05:10:10.916Z,99.90
2023-04-19T05:12:39.721Z,99.90
2023-04-19T05:15:12.390Z,99.90
2023-04-19T05:17:43.076Z,99.90
2023-04-19T05:20:12.487Z,99.90
2023-04-19T05:22:42.987Z,99.90
2023-04-19T05:25:12.864Z,99.90
2023-04-19T05:27:41.794Z,99.90
2023-04-19T05:30:12.203Z,99.90
2023-04-19T05:32:40.919Z,99.90
2023-04-19T05:35:11.388Z,99.90
2023-04-19T05:37:40.014Z,99.90
2023-04-19T05:40:10.987Z,99.90
2023-04-19T05:42:40.471Z,99.90
2023-04-19T05:45:11.861Z,99.60
2023-04-19T05:47:40.658Z,99.40
2023-04-19T05:50:09.842Z,99.50
2023-04-19T05:52:38.347Z,99.60
2023-04-19T05:55:07.254Z,99.80
2023-04-19T05:57:35.850Z,99.90
2023-04-19T06:00:04.322Z,99.90
2023-04-19T06:02:34.197Z,99.80
2023-04-19T06:05:16.216Z,99.60
2023-04-19T06:07:54.580Z,99.50
2023-04-19T06:10:44.486Z,99.70
2023-04-19T06:13:19.931Z,99.60
2023-04-19T06:15:49.731Z,99.70
2023-04-19T06:18:20.376Z,99.60
2023-04-19T06:20:49.158Z,99.30
2023-04-19T06:23:18.793Z,98.60
2023-04-19T06:25:49.245Z,98.60
2023-04-19T06:28:17.807Z,98.50
2023-04-19T06:30:46.366Z,97.90
2023-04-19T06:33:15.280Z,97.00
2023-04-19T06:35:45.439Z,97.10
2023-04-19T06:38:13.995Z,97.00
2023-04-19T06:40:42.806Z,96.30
2023-04-19T06:43:11.439Z,96.30
2023-04-19T06:45:40.600Z,95.70
2023-04-19T06:48:09.204Z,95.20
2023-04-19T06:50:38.221Z,94.80
2023-04-19T06:53:08.201Z,95.10
2023-04-19T06:55:36.956Z,95.00
2023-04-19T06:58:07.972Z,94.40
2023-04-19T07:00:36.439Z,94.60
2023-04-19T07:03:05.283Z,94.40
2023-04-19T07:05:33.991Z,94.00
2023-04-19T07:08:02.687Z,94.00
2023-04-19T07:10:32.560Z,94.40
2023-04-19T07:13:01.124Z,94.30
2023-04-19T07:15:30.136Z,94.30
2023-04-19T07:17:59.034Z,93.80
2023-04-19T07:20:27.674Z,93.60
2023-04-19T07:22:56.641Z,93.20
2023-04-19T07:25:25.135Z,93.10
2023-04-19T07:27:56.268Z,92.90
2023-04-19T07:30:25.235Z,93.60
2023-04-19T07:32:53.721Z,93.00
2023-04-19T07:35:22.344Z,92.80
2023-04-19T07:37:50.744Z,93.40
2023-04-19T07:40:19.328Z,92.50
2023-04-19T07:42:47.745Z,92.20
2023-04-19T07:45:17.964Z,92.40
2023-04-19T07:47:46.636Z,92.20
2023-04-19T07:50:15.590Z,91.40
2023-04-19T07:52:44.076Z,91.20
2023-04-19T07:55:13.130Z,90.70
2023-04-19T07:57:46.385Z,90.90
2023-04-19T08:00:17.314Z,91.00
2023-04-19T08:02:47.033Z,90.50
2023-04-19T08:05:17.797Z,90.60
2023-04-19T08:07:46.931Z,90.60
2023-04-19T08:10:15.736Z,91.00
2023-04-19T08:12:53.524Z,90.40
2023-04-19T08:18:05.170Z,90.20
2023-04-19T08:20:37.035Z,90.50
2023-04-19T08:23:18.033Z,88.20
2023-04-19T08:25:51.230Z,89.40
2023-04-19T08:28:20.372Z,88.70
2023-04-19T08:30:50.612Z,90.00
2023-04-19T08:33:19.414Z,90.70
2023-04-19T08:35:47.932Z,91.00
2023-04-19T08:38:16.870Z,89.90
2023-04-19T08:40:49.144Z,89.50
2023-04-19T08:43:19.175Z,89.30
2023-04-19T08:45:50.285Z,89.40
2023-04-19T08:48:19.804Z,89.00
2023-04-19T08:51:00.726Z,88.90
2023-04-19T08:53:33.040Z,86.90
2023-04-19T08:58:51.945Z,88.20
2023-04-19T09:01:33.807Z,87.70
2023-04-19T09:04:26.551Z,86.40
2023-04-19T09:06:57.992Z,86.80
2023-04-19T09:11:59.494Z,87.00
2023-04-19T09:14:29.152Z,85.70
2023-04-19T09:17:17.889Z,85.70
2023-04-19T09:19:50.331Z,86.80
2023-04-19T09:22:19.413Z,86.30
2023-04-19T09:27:29.532Z,84.00
2023-04-19T09:30:02.178Z,84.30
2023-04-19T09:32:47.185Z,83.90
2023-04-19T09:35:16.912Z,83.30
2023-04-19T09:38:05.541Z,81.00
2023-04-19T09:40:35.002Z,81.00
2023-04-19T09:43:25.771Z,81.20
2023-04-19T09:45:52.760Z,82.70
2023-04-19T09:48:25.762Z,82.00
2023-04-19T09:51:00.748Z,82.00
2023-04-19T09:53:34.795Z,82.30
2023-04-19T09:56:05.647Z,80.90
2023-04-19T09:58:49.026Z,81.40
2023-04-19T10:01:22.632Z,80.80
2023-04-19T10:03:53.739Z,79.40
2023-04-19T10:08:54.900Z,80.50
2023-04-19T10:11:25.365Z,78.20
2023-04-19T10:13:59.172Z,77.50
2023-04-19T10:16:28.454Z,78.50
2023-04-19T10:18:59.030Z,79.50
2023-04-19T10:21:28.925Z,80.40
2023-04-19T10:23:57.805Z,79.70
2023-04-19T10:26:27.832Z,80.40
2023-04-19T10:28:57.540Z,77.60
2023-04-19T10:31:27.704Z,80.60
2023-04-19T10:33:58.613Z,78.90
2023-04-19T10:36:29.349Z,78.20
2023-04-19T10:38:57.526Z,78.60
2023-04-19T10:41:25.798Z,77.40
2023-04-19T10:44:12.500Z,77.40
2023-04-19T10:46:41.912Z,77.00
2023-04-19T10:49:13.808Z,74.90
2023-04-19T10:51:44.432Z,76.40
2023-04-19T10:54:31.148Z,76.90
2023-04-19T10:57:04.836Z,75.60
2023-04-19T10:59:34.219Z,73.80
2023-04-19T11:02:03.670Z,73.90
2023-04-19T11:05:02.913Z,74.90
2023-04-19T11:07:42.178Z,73.30
2023-04-19T11:10:11.861Z,72.30
2023-04-19T11:12:44.220Z,72.50
2023-04-19T11:15:12.580Z,73.10
2023-04-19T11:17:42.763Z,73.10
2023-04-19T11:20:14.871Z,71.50
2023-04-19T11:22:44.349Z,73.30
2023-04-19T11:25:14.115Z,69.80
2023-04-19T11:27:43.253Z,71.40
2023-04-19T11:30:13.210Z,72.00
2023-04-19T11:32:47.454Z,70.90
2023-04-19T11:35:22.240Z,71.60
2023-04-19T11:37:51.085Z,71.40
2023-04-19T11:40:21.071Z,70.10
2023-04-19T11:42:55.642Z,69.40
2023-04-19T11:45:32.091Z,69.00
2023-04-19T11:48:02.018Z,69.40
2023-04-19T11:50:37.080Z,71.90
2023-04-19T11:53:13.672Z,70.50
2023-04-19T11:55:44.895Z,68.10
2023-04-19T11:58:25.880Z,70.30
2023-04-19T12:00:54.385Z,72.30
2023-04-19T12:03:26.480Z,71.60
2023-04-19T12:05:58.102Z,69.10
2023-04-19T12:08:33.720Z,67.70
2023-04-19T12:11:03.667Z,68.30
2023-04-19T12:13:35.382Z,69.70
2023-04-19T12:16:05.794Z,70.70
2023-04-19T12:18:49.024Z,70.80
2023-04-19T12:21:30.749Z,69.70
2023-04-19T12:23:59.528Z,68.20
2023-04-19T12:26:29.536Z,70.60
2023-04-19T12:28:59.298Z,69.10
2023-04-19T12:34:00.785Z,69.40
2023-04-19T12:36:30.785Z,68.60
2023-04-19T12:38:59.100Z,69.90
2023-04-19T12:41:27.408Z,68.80
2023-04-19T12:43:55.882Z,69.40
2023-04-19T12:46:24.085Z,68.70
2023-04-19T12:48:52.525Z,70.00
2023-04-19T12:51:20.942Z,69.20
2023-04-19T12:53:51.955Z,69.10
2023-04-19T12:56:21.683Z,68.80
2023-04-19T12:58:50.117Z,68.00
2023-04-19T13:01:18.685Z,68.10
2023-04-19T13:03:49.114Z,68.40
2023-04-19T13:06:18.467Z,68.80
2023-04-19T13:08:48.006Z,69.00
2023-04-19T13:11:23.189Z,66.90
2023-04-19T13:13:53.574Z,68.40
2023-04-19T13:16:22.910Z,68.20
2023-04-19T13:18:52.607Z,66.20
2023-04-19T13:21:21.153Z,67.10
2023-04-19T13:23:49.407Z,64.50
2023-04-19T13:26:19.301Z,64.00
2023-04-19T13:28:47.886Z,63.50
2023-04-19T13:31:16.527Z,62.70
2023-04-19T13:33:44.950Z,62.00
2023-04-19T13:36:13.704Z,62.90
2023-04-19T13:38:42.028Z,62.00
2023-04-19T13:41:10.936Z,61.80
2023-04-19T13:43:40.836Z,61.00
2023-04-19T13:46:09.121Z,62.90
2023-04-19T13:48:37.287Z,62.40
2023-04-19T13:51:06.014Z,63.90
2023-04-19T13:53:34.834Z,62.40
2023-04-19T13:56:03.172Z,62.70
2023-04-19T13:58:31.880Z,61.00
2023-04-19T14:01:01.989Z,61.80
2023-04-19T14:03:30.653Z,62.40
2023-04-19T14:05:59.556Z,62.00
2023-04-19T14:08:27.985Z,63.30
2023-04-19T14:10:58.555Z,59.30
2023-04-19T14:13:27.491Z,59.00
2023-04-19T14:15:55.941Z,59.80
2023-04-19T14:18:25.818Z,60.40
2023-04-19T14:20:54.584Z,60.60
2023-04-19T14:23:24.488Z,59.60
2023-04-19T14:25:52.804Z,59.60
2023-04-19T14:28:21.504Z,60.50
2023-04-19T14:30:49.852Z,59.60
2023-04-19T14:33:18.251Z,60.80
2023-04-19T14:35:48.428Z,63.20
2023-04-19T14:38:16.744Z,60.10
2023-04-19T14:40:45.092Z,59.80
2023-04-19T14:43:16.886Z,60.50
2023-04-19T14:45:45.100Z,59.70
2023-04-19T14:48:15.844Z,62.10
2023-04-19T14:50:43.939Z,60.00
2023-04-19T14:53:13.871Z,60.80
2023-04-19T14:55:42.786Z,60.50
2023-04-19T14:58:11.549Z,60.50
2023-04-19T15:00:39.771Z,61.60
2023-04-19T15:03:08.281Z,61.30
2023-04-19T15:05:37.838Z,59.00
2023-04-19T15:08:10.576Z,59.00
2023-04-19T15:10:44.911Z,59.50
2023-04-19T15:13:13.487Z,57.80
2023-04-19T15:15:44.079Z,60.10
2023-04-19T15:18:18.345Z,58.70
2023-04-19T15:20:47.173Z,58.40
2023-04-19T15:23:17.673Z,59.10
2023-04-19T15:25:49.844Z,59.60
2023-04-19T15:28:18.331Z,58.30
2023-04-19T15:30:46.649Z,60.20
2023-04-19T15:33:14.958Z,59.40
2023-04-19T15:35:43.604Z,58.50
2023-04-19T15:38:13.772Z,56.70
2023-04-19T15:40:42.492Z,59.10
2023-04-19T15:43:12.591Z,58.20
2023-04-19T15:45:41.925Z,57.00
2023-04-19T15:48:10.180Z,56.00
2023-04-19T15:50:39.371Z,56.40
2023-04-19T15:53:24.748Z,56.00
2023-04-19T15:55:55.344Z,56.60
2023-04-19T15:58:25.913Z,56.20
2023-04-19T16:00:54.492Z,56.20
2023-04-19T16:03:22.777Z,55.50
2023-04-19T16:05:51.837Z,56.50
2023-04-19T16:08:20.741Z,57.20
2023-04-19T16:10:49.957Z,57.50
2023-04-19T16:13:18.260Z,56.30
2023-04-19T16:15:48.331Z,56.60
2023-04-19T16:18:16.764Z,54.50
2023-04-19T16:20:45.354Z,55.30
2023-04-19T16:23:14.904Z,55.50
2023-04-19T16:25:43.839Z,56.20
2023-04-19T16:28:12.333Z,56.10
2023-04-19T16:30:40.753Z,55.00
2023-04-19T16:33:11.483Z,54.50
2023-04-19T16:35:39.725Z,56.70
2023-04-19T16:38:08.130Z,56.20
2023-04-19T16:40:36.501Z,56.60
2023-04-19T16:43:06.510Z,55.10
2023-04-19T16:45:34.831Z,55.60
2023-04-19T16:48:03.275Z,56.30
2023-04-19T16:50:33.586Z,57.10
2023-04-19T16:53:02.139Z,56.30
2023-04-19T16:55:30.900Z,57.20
2023-04-19T16:57:59.907Z,56.70
2023-04-19T17:00:28.593Z,55.50
2023-04-19T17:02:57.040Z,56.00
2023-04-19T17:05:25.563Z,56.90
2023-04-19T17:07:56.879Z,56.30
2023-04-19T17:10:26.576Z,54.50
2023-04-19T17:12:55.599Z,54.80
2023-04-19T17:15:26.223Z,56.40
2023-04-19T17:17:54.495Z,55.70
2023-04-19T17:20:25.192Z,55.40
2023-04-19T17:22:54.902Z,55.80
2023-04-19T17:25:23.695Z,56.50
2023-04-19T17:27:52.071Z,56.70
2023-04-19T17:30:21.244Z,56.70
2023-04-19T17:32:49.717Z,56.50
2023-04-19T17:35:18.076Z,56.00
2023-04-19T17:37:47.746Z,56.00
2023-04-19T17:40:22.608Z,56.00
2023-04-19T17:42:57.287Z,57.00
2023-04-19T17:45:26.682Z,56.20
2023-04-19T17:47:56.398Z,56.70
2023-04-19T17:50:26.765Z,57.80
2023-04-19T17:52:55.876Z,58.00
2023-04-19T17:55:26.838Z,57.30
2023-04-19T17:57:55.059Z,58.10
2023-04-19T18:00:24.046Z,57.80
2023-04-19T18:02:52.799Z,58.20
2023-04-19T18:05:21.789Z,58.80
2023-04-19T18:07:49.932Z,59.20
2023-04-19T18:10:18.479Z,59.40
2023-04-19T18:12:48.418Z,59.30
2023-04-19T18:15:16.888Z,59.50
2023-04-19T18:17:45.443Z,59.40
2023-04-19T18:20:14.617Z,59.20
2023-04-19T18:22:43.341Z,59.80
2023-04-19T18:25:12.336Z,59.70
2023-04-19T18:27:42.182Z,59.30
2023-04-19T18:30:13.525Z,60.30
2023-04-19T18:32:41.839Z,60.70
2023-04-19T18:35:11.672Z,61.80
2023-04-19T18:37:42.199Z,62.20
2023-04-19T18:40:11.435Z,62.60
2023-04-19T18:42:40.067Z,62.50
2023-04-19T18:45:10.045Z,62.10
2023-04-19T18:47:39.769Z,62.90
2023-04-19T18:50:09.814Z,63.40
2023-04-19T18:52:38.928Z,62.80
2023-04-19T18:55:09.319Z,63.70
2023-04-19T18:57:39.022Z,64.20
2023-04-19T19:00:11.283Z,65.40
2023-04-19T19:02:41.733Z,64.90
2023-04-19T19:05:13.852Z,64.60
2023-04-19T19:07:43.003Z,66.20
2023-04-19T19:10:18.150Z,65.50
2023-04-19T19:12:49.264Z,65.20
2023-04-19T19:15:18.146Z,65.70
2023-04-19T19:17:50.615Z,66.10
2023-04-19T19:20:20.227Z,65.90
2023-04-19T19:22:49.348Z,67.10
2023-04-19T19:25:18.037Z,67.10
2023-04-19T19:28:05.413Z,66.90
2023-04-19T19:30:35.853Z,67.40
2023-04-19T19:33:06.280Z,68.30
2023-04-19T19:35:34.741Z,68.80
2023-04-19T19:38:03.382Z,69.00
2023-04-19T19:40:32.868Z,69.10
2023-04-19T19:43:02.014Z,69.60
2023-04-19T19:45:32.635Z,69.10
2023-04-19T19:48:03.586Z,69.70
2023-04-19T19:50:54.506Z,70.30
2023-04-19T19:53:22.341Z,69.90
2023-04-19T19:55:50.855Z,70.00
2023-04-19T19:58:42.973Z,70.40
2023-04-19T20:01:07.603Z,71.10
2023-04-19T20:03:37.794Z,71.10
2023-04-19T20:07:02.894Z,71.10
2023-04-19T20:09:01.618Z,70.90
2023-04-19T20:11:30.082Z,71.40
2023-04-19T20:13:58.481Z,72.60
2023-04-19T20:16:27.541Z,72.90
2023-04-19T20:18:57.907Z,73.70
2023-04-19T20:21:28.229Z,73.40
2023-04-19T20:23:56.715Z,74.20
2023-04-19T20:26:25.155Z,73.90
2023-04-19T20:28:53.869Z,74.30
2023-04-19T20:31:23.867Z,74.20
2023-04-19T20:33:53.096Z,75.00
2023-04-19T20:36:23.122Z,75.40
2023-04-19T20:38:53.392Z,74.90
2023-04-19T20:41:22.524Z,75.10
2023-04-19T20:43:50.834Z,75.60
2023-04-19T20:46:19.141Z,75.90
2023-04-19T20:48:47.621Z,74.80
2023-04-19T20:51:17.883Z,75.70
2023-04-19T20:53:46.054Z,75.80
2023-04-19T20:56:15.694Z,75.00
2023-04-19T20:58:44.063Z,75.30
2023-04-19T21:01:17.326Z,75.30
2023-04-19T21:03:47.054Z,75.40
2023-04-19T21:06:15.568Z,75.80
2023-04-19T21:08:43.898Z,75.80
2023-04-19T21:11:12.034Z,75.20
2023-04-19T21:13:42.021Z,75.90
2023-04-19T21:16:10.566Z,75.60
2023-04-19T21:18:38.924Z,76.00
2023-04-19T21:21:07.275Z,75.70
2023-04-19T21:23:35.772Z,75.50
2023-04-19T21:26:04.777Z,75.90
2023-04-19T21:28:35.543Z,75.80
2023-04-19T21:31:05.472Z,75.90
2023-04-19T21:33:33.901Z,76.50
2023-04-19T21:36:02.308Z,75.60
2023-04-19T21:38:32.506Z,76.00
2023-04-19T21:41:00.932Z,76.30
2023-04-19T21:43:29.602Z,76.00
2023-04-19T21:45:58.062Z,75.20
2023-04-19T21:48:27.882Z,75.20
2023-04-19T22:06:54.722Z,74.90
2023-04-19T22:09:22.776Z,75.00
2023-04-19T22:11:51.256Z,74.50
2023-04-19T22:14:19.337Z,75.00
2023-04-19T22:16:47.661Z,75.20
2023-04-19T22:19:16.183Z,74.20
2023-04-19T22:21:44.449Z,75.10
2023-04-19T22:24:13.882Z,75.40
2023-04-19T22:26:41.924Z,74.40
2023-04-19T22:29:10.051Z,74.50
2023-04-19T22:31:38.130Z,74.70
2023-04-19T22:34:06.287Z,75.80
2023-04-19T22:36:34.352Z,74.40
2023-04-19T22:39:02.355Z,74.60
2023-04-19T22:41:31.848Z,74.90
2023-04-19T22:44:00.458Z,73.80
2023-04-19T22:46:28.706Z,73.80
2023-04-19T22:48:57.887Z,73.30
2023-04-19T22:51:26.085Z,73.40
2023-04-19T22:53:54.242Z,74.00
2023-04-19T22:56:22.402Z,74.90
2023-04-19T22:58:52.164Z,73.80
2023-04-19T23:01:20.302Z,74.50
2023-04-19T23:03:48.402Z,74.50
2023-04-19T23:06:17.878Z,74.30
2023-04-19T23:08:45.921Z,74.00
2023-04-19T23:11:14.022Z,74.10
2023-04-19T23:13:42.380Z,74.30
2023-04-19T23:16:12.870Z,74.40
2023-04-19T23:18:41.325Z,74.50
2023-04-19T23:21:09.373Z,75.00
2023-04-19T23:23:37.394Z,75.50
2023-04-19T23:26:05.477Z,75.40
2023-04-19T23:28:33.567Z,75.00
2023-04-19T23:31:01.669Z,75.80
2023-04-19T23:33:31.148Z,75.00
2023-04-19T23:35:59.164Z,75.30
2023-04-19T23:38:27.194Z,75.50
2023-04-19T23:40:55.407Z,76.10
2023-04-19T23:43:23.534Z,75.30
2023-04-19T23:45:51.552Z,75.30
2023-04-19T23:48:19.658Z,74.70
2023-04-19T23:50:49.162Z,74.70
2023-04-19T23:53:17.209Z,75.10
2023-04-19T23:55:45.241Z,74.80
2023-04-19T23:58:13.310Z,74.80
